Time;durP1;ratioP1;P1;durP2;ratioP2;P2;SDS_P1;SDS_P2;PMS_P1;PMS_P2;Temp;Humidity;BMP_temperature;BMP_pressure;BME280_temperature;BME280_humidity;BME280_pressure;Samples;Min_cycle;Max_cycle;Signal;HPM_P1;HPM_P2
2023/10/19 00:02:34;;;;;;;14.48;7.50;;;;;;;7.49;100.00;99701.50;6254131;28;20046;-74
2023/10/19 00:05:36;;;;;;;14.25;7.90;;;;;;;7.50;100.00;99702.38;6254584;28;20045;-73
2023/10/19 00:08:41;;;;;;;19.83;8.48;;;;;;;7.45;100.00;99700.03;6254225;28;20049;-74
2023/10/19 00:11:42;;;;;;;19.20;8.38;;;;;;;7.43;100.00;99695.81;6254008;28;20049;-75
2023/10/19 00:14:46;;;;;;;16.95;8.13;;;;;;;7.41;100.00;99692.44;6253860;28;20104;-74
2023/10/19 00:17:47;;;;;;;18.55;9.05;;;;;;;7.37;100.00;99690.00;6254188;28;20050;-73
2023/10/19 00:20:59;;;;;;;17.02;8.55;;;;;;;7.32;100.00;99686.81;6253767;28;20046;-73
2023/10/19 00:24:04;;;;;;;21.48;8.80;;;;;;;7.30;100.00;99679.97;6253790;28;20057;-73
2023/10/19 00:27:15;;;;;;;14.00;8.50;;;;;;;7.23;100.00;99674.28;6253893;28;20083;-72
2023/10/19 00:30:23;;;;;;;15.43;8.65;;;;;;;7.23;100.00;99668.22;6253658;28;20142;-73
2023/10/19 00:33:28;;;;;;;17.70;8.77;;;;;;;7.24;100.00;99668.09;6253444;28;20493;-72
2023/10/19 00:36:31;;;;;;;19.52;9.18;;;;;;;7.16;100.00;99656.41;6253776;28;20122;-75
2023/10/19 00:39:42;;;;;;;17.02;8.73;;;;;;;7.20;100.00;99655.31;6253416;28;20084;-72
2023/10/19 00:42:46;;;;;;;19.98;9.48;;;;;;;7.20;100.00;99644.84;6253111;28;20076;-73
2023/10/19 00:45:52;;;;;;;19.50;9.88;;;;;;;7.21;100.00;99647.38;6252650;28;20037;-72
2023/10/19 00:48:58;;;;;;;18.73;9.90;;;;;;;7.17;100.00;99648.47;6247278;28;20056;-73
2023/10/19 00:52:11;;;;;;;21.08;9.95;;;;;;;7.16;100.00;99648.56;6248663;28;20053;-73
2023/10/19 00:55:14;;;;;;;19.40;10.00;;;;;;;7.10;100.00;99642.75;6253555;28;20050;-72
2023/10/19 00:58:18;;;;;;;22.55;9.85;;;;;;;7.13;100.00;99644.38;6252998;28;20053;-72
2023/10/19 01:01:28;;;;;;;22.70;9.70;;;;;;;7.17;100.00;99632.78;6244619;28;20046;-72
2023/10/19 01:04:32;;;;;;;18.92;9.23;;;;;;;7.18;100.00;99628.44;6252978;28;20045;-73
2023/10/19 01:07:38;;;;;;;23.83;9.80;;;;;;;7.18;100.00;99626.66;6252715;28;20365;-72
2023/10/19 01:10:40;;;;;;;19.30;10.18;;;;;;;7.15;100.00;99618.16;6243092;28;20128;-72
2023/10/19 01:13:44;;;;;;;22.13;10.95;;;;;;;7.10;100.00;99611.41;6252945;28;20111;-72
2023/10/19 01:16:49;;;;;;;20.75;9.63;;;;;;;7.10;100.00;99602.75;6252711;28;20045;-72
2023/10/19 01:19:52;;;;;;;19.10;10.20;;;;;;;7.07;100.00;99601.13;6244110;28;20480;-72
2023/10/19 01:23:20;;;;;;;27.65;11.40;;;;;;;7.07;100.00;99587.25;6252867;28;20053;-72
2023/10/19 01:26:25;;;;;;;18.20;9.82;;;;;;;7.06;100.00;99580.34;6252467;28;20426;-72
2023/10/19 01:29:28;;;;;;;22.25;10.05;;;;;;;7.01;100.00;99578.00;6252382;28;20098;-72
2023/10/19 01:32:30;;;;;;;22.00;10.48;;;;;;;7.00;100.00;99575.47;6252153;28;20050;-72
2023/10/19 01:36:10;;;;;;;21.67;10.60;;;;;;;7.00;100.00;99568.47;6252041;28;20042;-72
2023/10/19 01:38:58;;;;;;;25.83;10.82;;;;;;;7.03;100.00;99570.06;6246770;28;20468;-70
2023/10/19 01:41:58;;;;;;;24.45;11.10;;;;;;;7.00;100.00;99562.41;6251679;28;20368;-73
2023/10/19 01:45:00;;;;;;;24.85;10.95;;;;;;;6.99;100.00;99558.94;6252233;28;20052;-72
2023/10/19 01:48:00;;;;;;;30.50;12.18;;;;;;;7.01;100.00;99551.03;6251986;28;20053;-72
2023/10/19 01:51:04;;;;;;;22.50;10.27;;;;;;;7.02;100.00;99550.09;6251760;28;20440;-72
2023/10/19 01:54:08;;;;;;;18.42;9.75;;;;;;;6.99;100.00;99532.81;6251812;28;20077;-72
2023/10/19 01:57:12;;;;;;;21.50;10.07;;;;;;;6.97;100.00;99534.69;6251527;28;20128;-72
2023/10/19 02:00:22;;;;;;;18.73;9.90;;;;;;;6.95;100.00;99522.63;6251469;28;20133;-72
2023/10/19 02:03:24;;;;;;;21.10;10.40;;;;;;;6.93;100.00;99522.72;6251489;28;20053;-73
2023/10/19 02:06:28;;;;;;;23.67;10.93;;;;;;;6.96;100.00;99514.72;6252054;28;20053;-73
2023/10/19 02:09:32;;;;;;;23.58;10.82;;;;;;;6.93;100.00;99501.00;6251255;28;20138;-73
2023/10/19 02:12:34;;;;;;;21.98;9.98;;;;;;;6.93;100.00;99503.63;6251098;28;20334;-73
2023/10/19 02:15:36;;;;;;;21.98;10.70;;;;;;;6.88;100.00;99497.81;6251206;28;20077;-73
2023/10/19 02:18:38;;;;;;;21.15;10.35;;;;;;;6.82;100.00;99501.63;6251431;28;20049;-72
2023/10/19 02:21:40;;;;;;;21.45;10.48;;;;;;;6.85;100.00;99507.50;6250026;28;20178;-73
2023/10/19 02:24:42;;;;;;;23.30;10.18;;;;;;;6.86;100.00;99508.38;6251137;28;20045;-72
2023/10/19 02:27:44;;;;;;;24.55;11.20;;;;;;;6.88;100.00;99509.09;6250937;28;20053;-73
2023/10/19 02:30:46;;;;;;;26.50;11.30;;;;;;;6.85;100.00;99507.50;6250930;28;20056;-73
2023/10/19 02:33:51;;;;;;;23.83;11.68;;;;;;;6.89;100.00;99509.94;6250816;28;20054;-72
2023/10/19 02:36:53;;;;;;;23.08;10.70;;;;;;;6.87;100.00;99507.44;6250892;28;20052;-73
2023/10/19 02:39:56;;;;;;;23.60;11.13;;;;;;;6.85;100.00;99485.78;6250640;28;20049;-73
2023/10/19 02:43:02;;;;;;;25.05;10.93;;;;;;;6.86;100.00;99483.09;6250820;28;20053;-73
2023/10/19 02:46:04;;;;;;;20.13;10.20;;;;;;;6.87;100.00;99486.53;6250070;28;20045;-72
2023/10/19 02:49:11;;;;;;;24.27;11.20;;;;;;;6.89;100.00;99465.56;6242407;28;20053;-72
2023/10/19 02:52:16;;;;;;;28.15;10.98;;;;;;;6.88;100.00;99453.44;6242609;28;20060;-73
2023/10/19 02:55:20;;;;;;;19.70;10.63;;;;;;;6.84;100.00;99442.31;6250419;28;20481;-72
2023/10/19 02:58:21;;;;;;;21.25;10.35;;;;;;;6.81;100.00;99453.81;6250494;28;20473;-73
2023/10/19 03:01:21;;;;;;;21.58;10.25;;;;;;;6.80;100.00;99451.25;6241857;28;20052;-73
2023/10/19 03:04:25;;;;;;;24.65;11.52;;;;;;;6.81;100.00;99450.31;6250510;28;20045;-72
2023/10/19 03:07:27;;;;;;;23.13;10.65;;;;;;;6.84;100.00;99456.22;6250272;28;20046;-72
2023/10/19 03:10:41;;;;;;;21.77;11.27;;;;;;;6.86;100.00;99450.91;6242223;28;20045;-71
2023/10/19 03:13:43;;;;;;;23.17;12.13;;;;;;;6.88;100.00;99441.22;6238593;28;20511;-71
2023/10/19 03:16:45;;;;;;;22.65;11.10;;;;;;;6.86;100.00;99441.31;6243523;28;20341;-72
2023/10/19 03:19:48;;;;;;;24.60;10.88;;;;;;;6.88;100.00;99432.53;6241898;28;20129;-73
2023/10/19 03:22:49;;;;;;;26.77;12.05;;;;;;;6.84;100.00;99421.44;6250029;28;20492;-72
2023/10/19 03:29:16;;;;;;;23.73;11.38;;;;;;;6.83;100.00;99420.59;6249928;28;20306;-72
2023/10/19 03:32:18;;;;;;;24.67;11.50;;;;;;;6.84;100.00;99418.81;6249801;28;20049;-72
2023/10/19 03:35:21;;;;;;;22.23;11.40;;;;;;;6.84;100.00;99400.53;6253343;28;20115;-73
2023/10/19 03:38:22;;;;;;;18.60;9.57;;;;;;;6.85;100.00;99405.66;6254907;28;20049;-73
2023/10/19 03:41:26;;;;;;;22.88;11.13;;;;;;;6.80;100.00;99402.50;6247600;28;20049;-72
2023/10/19 03:44:39;;;;;;;25.08;11.02;;;;;;;6.83;100.00;99407.53;6254177;28;20049;-72
2023/10/19 03:47:43;;;;;;;21.05;10.48;;;;;;;6.82;100.00;99397.19;6254851;28;20136;-72
2023/10/19 03:50:44;;;;;;;20.42;9.95;;;;;;;6.81;100.00;99396.38;6254409;28;20056;-73
2023/10/19 03:53:53;;;;;;;21.13;10.55;;;;;;;6.85;100.00;99392.59;6255023;28;20138;-72
2023/10/19 03:56:57;;;;;;;21.33;10.32;;;;;;;6.83;100.00;99391.88;6254491;28;20056;-72
2023/10/19 03:59:59;;;;;;;21.33;10.27;;;;;;;6.85;100.00;99387.38;6254340;28;20107;-72
2023/10/19 04:03:00;;;;;;;25.45;11.77;;;;;;;6.83;100.00;99391.03;6253972;28;20350;-73
2023/10/19 04:06:03;;;;;;;30.42;12.02;;;;;;;6.79;100.00;99389.53;6254465;28;20056;-73
2023/10/19 04:09:05;;;;;;;25.92;12.73;;;;;;;6.82;100.00;99381.53;6254181;28;20051;-73
2023/10/19 04:12:10;;;;;;;26.92;12.02;;;;;;;6.83;100.00;99375.38;6245536;28;20049;-72
2023/10/19 04:15:15;;;;;;;24.05;10.68;;;;;;;6.88;100.00;99372.47;6254184;28;20081;-72
2023/10/19 04:18:16;;;;;;;26.02;11.32;;;;;;;6.88;100.00;99375.09;6253602;28;20426;-72
2023/10/19 04:21:18;;;;;;;19.33;10.77;;;;;;;6.88;100.00;99367.25;6244582;28;20049;-72
2023/10/19 04:24:19;;;;;;;26.35;12.77;;;;;;;6.86;100.00;99360.38;6246934;28;20426;-72
2023/10/19 04:27:23;;;;;;;23.00;11.23;;;;;;;6.86;100.00;99365.59;6252168;28;20045;-72
2023/10/19 04:30:24;;;;;;;22.67;10.70;;;;;;;6.84;100.00;99358.75;6244922;28;20132;-72
2023/10/19 04:33:28;;;;;;;22.25;10.85;;;;;;;6.88;100.00;99351.59;6253607;28;20081;-72
2023/10/19 04:36:29;;;;;;;19.77;10.15;;;;;;;6.85;100.00;99352.59;6245201;28;20048;-72
2023/10/19 04:39:31;;;;;;;20.45;9.93;;;;;;;6.83;100.00;99344.03;6253380;28;20057;-71
2023/10/19 04:42:33;;;;;;;20.67;9.43;;;;;;;6.80;100.00;99342.44;6253090;28;20054;-72
2023/10/19 04:45:35;;;;;;;19.35;10.38;;;;;;;6.81;100.00;99341.53;6251630;28;20041;-71
2023/10/19 04:48:36;;;;;;;18.05;9.88;;;;;;;6.83;100.00;99336.19;6252268;28;20049;-72
2023/10/19 04:51:38;;;;;;;16.13;8.80;;;;;;;6.87;100.00;99342.91;6245044;28;20060;-71
2023/10/19 04:54:40;;;;;;;17.85;8.93;;;;;;;6.86;100.00;99326.41;6251721;28;20053;-72
2023/10/19 04:57:43;;;;;;;17.58;8.93;;;;;;;6.84;100.00;99330.88;6251712;28;20126;-71
2023/10/19 05:00:44;;;;;;;18.27;8.65;;;;;;;6.81;100.00;99328.47;6243373;28;20350;-72
2023/10/19 05:03:46;;;;;;;16.40;8.10;;;;;;;6.85;100.00;99327.31;6244519;28;20053;-72
2023/10/19 05:06:47;;;;;;;15.32;7.57;;;;;;;6.81;100.00;99328.47;6250016;28;20433;-72
2023/10/19 05:09:48;;;;;;;16.70;8.23;;;;;;;6.83;100.00;99330.97;6250127;28;20057;-73
2023/10/19 05:12:51;;;;;;;14.25;8.00;;;;;;;6.85;100.00;99322.09;6249440;28;20049;-72
2023/10/19 05:15:53;;;;;;;14.77;7.93;;;;;;;6.85;100.00;99329.09;6244335;28;20345;-72
2023/10/19 05:18:55;;;;;;;14.93;7.78;;;;;;;6.80;100.00;99320.72;6252697;28;20053;-73
2023/10/19 05:21:56;;;;;;;15.88;8.13;;;;;;;6.82;100.00;99324.09;6252234;28;20053;-72
2023/10/19 05:24:58;;;;;;;12.13;6.97;;;;;;;6.86;100.00;99321.19;6244125;28;20057;-73
2023/10/19 05:28:01;;;;;;;12.65;7.15;;;;;;;6.87;100.00;99322.03;6252511;28;20114;-72
2023/10/19 05:31:04;;;;;;;13.88;7.45;;;;;;;6.86;100.00;99322.97;6252109;28;20080;-73
2023/10/19 05:34:05;;;;;;;13.65;6.95;;;;;;;6.85;100.00;99329.94;6248258;28;20058;-71
2023/10/19 05:37:08;;;;;;;12.30;7.45;;;;;;;6.88;100.00;99322.88;6248122;28;20045;-72
2023/10/19 05:40:14;;;;;;;12.98;7.18;;;;;;;6.86;100.00;99322.97;6251848;28;20357;-72
2023/10/19 05:43:17;;;;;;;12.15;7.05;;;;;;;6.85;100.00;99318.66;6252079;28;20057;-72
2023/10/19 05:46:21;;;;;;;12.88;5.85;;;;;;;6.81;100.00;99320.63;6252252;28;20041;-72
2023/10/19 05:49:23;;;;;;;13.82;6.30;;;;;;;6.82;100.00;99322.31;6251705;28;20354;-72
2023/10/19 05:52:25;;;;;;;11.35;5.72;;;;;;;6.86;100.00;99328.19;6251951;28;20053;-72
2023/10/19 05:55:26;;;;;;;11.05;6.00;;;;;;;6.84;100.00;99325.66;6251876;28;20056;-72
2023/10/19 05:58:29;;;;;;;9.88;5.07;;;;;;;6.80;100.00;99321.53;6251772;28;20060;-71
2023/10/19 06:01:31;;;;;;;15.55;7.00;;;;;;;6.83;100.00;99331.81;6251587;28;20060;-71
2023/10/19 06:04:32;;;;;;;11.02;6.07;;;;;;;6.86;100.00;99330.81;6251315;28;20050;-72
2023/10/19 06:07:34;;;;;;;12.13;6.43;;;;;;;6.86;100.00;99331.66;6251604;28;20052;-71
2023/10/19 06:10:39;;;;;;;10.63;6.00;;;;;;;6.84;100.00;99330.88;6251150;28;20339;-71
2023/10/19 06:13:43;;;;;;;8.18;4.80;;;;;;;6.88;100.00;99341.16;6244135;28;20338;-73
2023/10/19 06:16:44;;;;;;;12.60;5.43;;;;;;;6.83;100.00;99338.81;6251288;28;20132;-71
2023/10/19 06:19:46;;;;;;;11.05;5.57;;;;;;;6.83;100.00;99342.25;6241905;28;20361;-71
2023/10/19 06:22:50;;;;;;;11.10;5.78;;;;;;;6.86;100.00;99343.88;6250028;28;20046;-71
2023/10/19 06:25:51;;;;;;;9.52;4.95;;;;;;;6.84;100.00;99340.50;6241865;28;20052;-71
2023/10/19 06:28:58;;;;;;;10.55;5.80;;;;;;;6.86;100.00;99341.25;6245026;28;20049;-72
2023/10/19 06:31:59;;;;;;;9.95;4.68;;;;;;;6.83;100.00;99342.25;6250900;28;20049;-72
2023/10/19 06:35:01;;;;;;;8.88;5.30;;;;;;;6.82;100.00;99342.38;6251018;28;20056;-73
2023/10/19 06:38:04;;;;;;;7.82;4.00;;;;;;;6.81;100.00;99336.31;6250710;28;20091;-72
2023/10/19 06:41:12;;;;;;;7.40;4.43;;;;;;;6.85;100.00;99334.31;6250812;28;20080;-72
2023/10/19 06:44:16;;;;;;;7.20;4.10;;;;;;;6.84;100.00;99330.03;6249954;28;20056;-72
2023/10/19 06:47:18;;;;;;;8.50;4.32;;;;;;;6.87;100.00;99329.88;6244458;28;20237;-72
2023/10/19 06:50:22;;;;;;;7.30;4.18;;;;;;;6.88;100.00;99334.16;6244904;28;20429;-72
2023/10/19 06:53:23;;;;;;;7.97;4.18;;;;;;;6.87;100.00;99324.66;6249535;28;20041;-72
2023/10/19 06:56:26;;;;;;;9.90;4.35;;;;;;;6.87;100.00;99319.41;6240552;28;20465;-72
2023/10/19 06:59:29;;;;;;;5.72;3.35;;;;;;;6.81;100.00;99312.81;6243449;28;20042;-72
2023/10/19 07:02:30;;;;;;;6.40;3.80;;;;;;;6.85;100.00;99318.66;6241938;28;20052;-72
2023/10/19 07:05:32;;;;;;;7.55;4.25;;;;;;;6.87;100.00;99316.81;6249973;28;20053;-71
2023/10/19 07:08:33;;;;;;;6.75;3.97;;;;;;;6.87;100.00;99322.03;6248323;28;20108;-71
2023/10/19 07:11:35;;;;;;;7.90;4.15;;;;;;;6.92;100.00;99313.91;6248295;28;20061;-73
2023/10/19 07:14:37;;;;;;;6.63;3.92;;;;;;;6.93;100.00;99318.19;6247621;28;20167;-72
2023/10/19 07:17:39;;;;;;;8.43;4.25;;;;;;;6.93;100.00;99312.97;6265249;28;20048;-72
2023/10/19 07:20:42;;;;;;;6.03;3.53;;;;;;;6.92;100.00;99329.59;6260537;28;20053;-72
2023/10/19 07:23:45;;;;;;;7.40;4.00;;;;;;;6.92;100.00;99317.38;6259436;28;20080;-71
2023/10/19 07:27:03;;;;;;;5.85;3.78;;;;;;;6.97;100.00;99336.19;6280021;28;20457;-71
2023/10/19 07:30:09;;;;;;;7.68;3.90;;;;;;;7.00;100.00;99341.25;6280004;28;20429;-70
2023/10/19 07:33:16;;;;;;;6.70;4.03;;;;;;;6.99;100.00;99334.31;6279772;28;20047;-71
2023/10/19 07:36:19;;;;;;;7.28;4.30;;;;;;;7.03;100.00;99327.13;6279719;28;20357;-69
2023/10/19 07:39:22;;;;;;;6.03;3.75;;;;;;;6.99;100.00;99336.94;6249620;28;20204;-69
2023/10/19 07:42:25;;;;;;;9.10;4.43;;;;;;;7.03;100.00;99329.75;6252046;28;20068;-70
2023/10/19 07:45:28;;;;;;;6.40;4.10;;;;;;;7.00;100.00;99328.19;6246429;28;20088;-72
2023/10/19 07:48:29;;;;;;;5.85;3.80;;;;;;;7.03;100.00;99319.31;6250607;28;20077;-70
2023/10/19 07:51:31;;;;;;;6.05;3.95;;;;;;;7.04;100.00;99329.69;6252920;28;20056;-70
2023/10/19 07:54:32;;;;;;;9.55;4.65;;;;;;;7.05;100.00;99320.91;6254019;28;20045;-70
2023/10/19 07:57:34;;;;;;;7.82;4.15;;;;;;;7.06;100.00;99330.41;6251856;28;20422;-69
2023/10/19 08:00:38;;;;;;;9.70;4.53;;;;;;;7.09;100.00;99338.06;6244933;28;20049;-70
2023/10/19 08:03:40;;;;;;;9.13;4.47;;;;;;;7.09;100.00;99338.06;6254055;28;20045;-71
2023/10/19 08:06:42;;;;;;;9.60;4.78;;;;;;;7.09;100.00;99338.06;6246587;28;20045;-71
2023/10/19 08:09:43;;;;;;;8.45;4.97;;;;;;;7.11;100.00;99341.41;6254382;28;20057;-70
2023/10/19 08:12:47;;;;;;;8.73;3.92;;;;;;;7.16;100.00;99340.28;6254072;28;20381;-70
2023/10/19 08:15:50;;;;;;;7.65;4.18;;;;;;;7.13;100.00;99341.34;6254208;28;20057;-69
2023/10/19 08:18:52;;;;;;;6.28;3.42;;;;;;;7.14;100.00;99322.09;6254145;28;20049;-72
2023/10/19 08:21:54;;;;;;;9.70;4.93;;;;;;;7.20;100.00;99334.78;6253128;28;20049;-73
2023/10/19 08:24:55;;;;;;;10.48;4.25;;;;;;;7.19;100.00;99329.66;6270426;28;20060;-72
2023/10/19 08:27:57;;;;;;;6.70;4.22;;;;;;;7.21;100.00;99327.78;6278752;28;20053;-71
2023/10/19 08:31:01;;;;;;;6.55;3.72;;;;;;;7.24;100.00;99322.38;6278412;28;20057;-70
2023/10/19 08:34:03;;;;;;;11.60;4.30;;;;;;;7.28;100.00;99329.09;6278351;28;20049;-72
2023/10/19 08:37:05;;;;;;;7.40;3.97;;;;;;;7.25;100.00;99332.72;6278492;28;20045;-72
2023/10/19 08:40:08;;;;;;;11.52;3.92;;;;;;;7.27;100.00;99330.88;6278195;28;20059;-71
2023/10/19 08:43:13;;;;;;;7.82;3.83;;;;;;;7.30;100.00;99332.44;6278400;28;20057;-72
2023/10/19 08:46:16;;;;;;;8.82;4.28;;;;;;;7.33;100.00;99333.09;6278186;28;20060;-72
2023/10/19 08:49:19;;;;;;;5.45;3.78;;;;;;;7.34;100.00;99332.13;6277932;28;20342;-72
2023/10/19 08:52:23;;;;;;;6.93;4.47;;;;;;;7.40;100.00;99333.53;6277685;28;20384;-72
2023/10/19 08:55:25;;;;;;;5.40;3.25;;;;;;;7.40;100.00;99337.91;6244969;28;20054;-74
2023/10/19 08:58:27;;;;;;;6.32;3.60;;;;;;;7.42;100.00;99331.66;6228610;28;20438;-74
2023/10/19 09:01:30;;;;;;;8.55;4.07;;;;;;;7.41;100.00;99329.16;6251194;28;20134;-73
2023/10/19 09:04:31;;;;;;;5.68;3.60;;;;;;;7.48;100.00;99333.06;6245879;28;20049;-72
2023/10/19 09:07:34;;;;;;;7.50;3.83;;;;;;;7.48;100.00;99336.50;6251981;28;20054;-72
2023/10/19 09:10:36;;;;;;;5.97;3.83;;;;;;;7.50;100.00;99349.50;6252866;28;20152;-73
2023/10/19 09:13:44;;;;;;;6.90;4.05;;;;;;;7.53;100.00;99338.81;6252744;28;20056;-72
2023/10/19 09:16:56;;;;;;;4.70;3.20;;;;;;;7.53;100.00;99336.22;6252824;28;20046;-73
2023/10/19 09:19:59;;;;;;;5.00;2.72;;;;;;;7.53;100.00;99323.97;6252491;28;20053;-72
2023/10/19 09:23:02;;;;;;;4.88;3.20;;;;;;;7.57;100.00;99322.84;6253241;28;20053;-74
2023/10/19 09:26:03;;;;;;;5.80;3.25;;;;;;;7.61;100.00;99321.72;6277617;28;20183;-78
2023/10/19 09:29:05;;;;;;;5.50;2.75;;;;;;;7.59;100.00;99323.59;6277323;28;20051;-72
2023/10/19 09:32:09;;;;;;;4.40;2.65;;;;;;;7.60;100.00;99319.22;6275786;28;20692;-73
2023/10/19 09:35:15;;;;;;;5.60;3.13;;;;;;;7.62;100.00;99326.00;6277032;28;20053;-72
2023/10/19 09:38:21;;;;;;;5.57;2.75;;;;;;;7.65;100.00;99319.75;6276956;28;20056;-72
2023/10/19 09:41:28;;;;;;;8.27;3.50;;;;;;;7.65;100.00;99319.75;6276502;28;20474;-72
2023/10/19 09:44:34;;;;;;;5.00;3.10;;;;;;;7.69;100.00;99326.47;6276696;28;20378;-73
2023/10/19 09:47:42;;;;;;;5.88;3.08;;;;;;;7.71;100.00;99327.19;6276676;28;20132;-72
2023/10/19 09:50:45;;;;;;;5.68;3.60;;;;;;;7.75;100.00;99320.00;6270845;28;20556;-71
2023/10/19 09:53:50;;;;;;;4.18;2.65;;;;;;;7.80;100.00;99325.75;6251373;28;20045;-73
2023/10/19 09:57:02;;;;;;;6.53;3.35;;;;;;;7.80;100.00;99328.38;6243639;28;20056;-72
2023/10/19 10:00:11;;;;;;;7.30;4.45;;;;;;;7.80;100.00;99323.97;6251626;28;20053;-72
2023/10/19 10:03:46;;;;;;;4.20;3.10;;;;;;;7.81;100.00;99315.22;6251647;28;20353;-72
2023/10/19 10:07:00;;;;;;;8.82;3.65;;;;;;;7.78;100.00;99319.81;6251800;28;20058;-72
2023/10/19 10:10:04;;;;;;;7.22;3.40;;;;;;;7.79;100.00;99330.16;6251266;28;20373;-72
2023/10/19 10:13:38;;;;;;;4.03;2.70;;;;;;;7.78;100.00;99332.88;6251534;28;20422;-72
2023/10/19 10:16:40;;;;;;;10.23;5.28;;;;;;;7.79;100.00;99324.09;6232526;28;20060;-72
2023/10/19 10:19:43;;;;;;;6.00;3.38;;;;;;;7.79;100.00;99321.47;6226839;28;20057;-72
2023/10/19 10:22:45;;;;;;;7.88;3.85;;;;;;;7.77;100.00;99321.59;6226422;28;20050;-72
2023/10/19 10:25:48;;;;;;;4.82;3.20;;;;;;;7.76;100.00;99316.44;6273286;28;20135;-73
2023/10/19 10:29:09;;;;;;;5.28;2.97;;;;;;;7.75;100.00;99309.53;6265617;28;20124;-75
2023/10/19 10:32:12;;;;;;;6.05;2.70;;;;;;;7.71;100.00;99308.88;6250821;28;20464;-74
2023/10/19 10:35:46;;;;;;;7.22;4.13;;;;;;;7.71;100.00;99301.03;6247321;28;20432;-74
2023/10/19 10:38:51;;;;;;;5.20;2.88;;;;;;;7.70;100.00;99306.38;6249631;28;20342;-74
2023/10/19 10:41:56;;;;;;;5.75;3.55;;;;;;;7.73;100.00;99295.72;6243320;28;20049;-74
2023/10/19 10:44:58;;;;;;;3.90;3.03;;;;;;;7.73;100.00;99298.34;6241004;28;20058;-74
2023/10/19 10:48:00;;;;;;;4.93;3.53;;;;;;;7.78;100.00;99296.28;6239691;28;20049;-74
2023/10/19 10:51:02;;;;;;;6.25;3.38;;;;;;;7.77;100.00;99295.44;6248745;28;20191;-74
2023/10/19 10:54:07;;;;;;;7.97;4.30;;;;;;;7.80;100.00;99291.75;6249719;28;20045;-74
2023/10/19 10:57:09;;;;;;;9.63;4.63;;;;;;;7.83;100.00;99288.97;6250885;28;20045;-74
2023/10/19 11:00:15;;;;;;;6.53;3.60;;;;;;;7.85;100.00;99293.13;6250831;28;20056;-74
2023/10/19 11:03:16;;;;;;;6.93;3.75;;;;;;;7.87;100.00;99288.66;6250865;28;20060;-74
2023/10/19 11:06:18;;;;;;;4.93;3.60;;;;;;;7.92;100.00;99287.50;6250960;28;20053;-74
2023/10/19 11:09:21;;;;;;;6.55;3.80;;;;;;;7.94;100.00;99280.41;6250600;28;20053;-75
2023/10/19 11:12:24;;;;;;;5.28;2.95;;;;;;;7.94;100.00;99286.47;6250123;28;20057;-75
2023/10/19 11:15:26;;;;;;;7.30;3.60;;;;;;;7.95;100.00;99285.53;6250633;28;20136;-74
2023/10/19 11:18:33;;;;;;;6.15;3.65;;;;;;;7.96;100.00;99276.75;6250261;28;20445;-74
2023/10/19 11:21:34;;;;;;;6.82;4.03;;;;;;;7.99;100.00;99273.06;6250255;28;20049;-74
2023/10/19 11:24:39;;;;;;;6.32;3.53;;;;;;;8.01;100.00;99274.66;6250522;28;20084;-74
2023/10/19 11:27:41;;;;;;;9.65;3.33;;;;;;;8.04;100.00;99277.09;6250167;28;20049;-74
2023/10/19 11:30:42;;;;;;;6.60;3.58;;;;;;;8.06;100.00;99287.44;6250039;28;20073;-74
2023/10/19 11:33:45;;;;;;;6.72;3.55;;;;;;;8.00;100.00;99288.69;6250003;28;20334;-74
2023/10/19 11:36:48;;;;;;;7.05;4.10;;;;;;;8.02;100.00;99284.19;6250238;28;20053;-74
2023/10/19 11:39:50;;;;;;;6.35;4.05;;;;;;;7.97;100.00;99273.19;6249893;28;20045;-74
2023/10/19 11:42:56;;;;;;;7.07;4.13;;;;;;;7.97;100.00;99261.88;6250027;28;20049;-75
2023/10/19 11:45:57;;;;;;;7.70;4.35;;;;;;;7.99;100.00;99266.06;6250043;28;20099;-74
2023/10/19 11:48:59;;;;;;;7.72;3.92;;;;;;;8.00;100.00;99265.16;6250052;28;20053;-74
2023/10/19 11:52:00;;;;;;;7.93;4.22;;;;;;;8.03;100.00;99272.78;6249654;28;20058;-73
2023/10/19 11:55:05;;;;;;;7.28;4.25;;;;;;;8.07;100.00;99276.88;6250873;28;20046;-74
2023/10/19 11:58:08;;;;;;;21.88;7.20;;;;;;;8.03;100.00;99274.56;6254847;28;20053;-74
2023/10/19 12:01:12;;;;;;;14.25;4.88;;;;;;;8.05;100.00;99283.16;6254673;28;20042;-73
2023/10/19 12:04:14;;;;;;;7.85;4.45;;;;;;;8.03;100.00;99278.00;6254369;28;20064;-73
2023/10/19 12:07:16;;;;;;;7.57;4.53;;;;;;;8.04;100.00;99279.69;6254575;28;20049;-73
2023/10/19 12:10:20;;;;;;;7.43;4.45;;;;;;;8.04;100.00;99278.84;6254129;28;20049;-73
2023/10/19 12:13:21;;;;;;;7.90;4.47;;;;;;;8.03;100.00;99274.56;6254167;28;20152;-73
2023/10/19 12:16:24;;;;;;;8.48;4.95;;;;;;;8.04;100.00;99278.84;6254306;28;20064;-73
2023/10/19 12:19:25;;;;;;;7.38;4.68;;;;;;;8.00;100.00;99274.78;6253842;28;20456;-73
2023/10/19 12:22:28;;;;;;;9.38;5.25;;;;;;;7.99;100.00;99280.94;6254360;28;20422;-73
2023/10/19 12:25:31;;;;;;;12.65;4.60;;;;;;;8.03;100.00;99277.16;6253907;28;20046;-73
2023/10/19 12:28:33;;;;;;;7.88;4.68;;;;;;;8.08;100.00;99275.06;6253855;28;20119;-73
2023/10/19 12:31:34;;;;;;;9.32;4.95;;;;;;;8.09;100.00;99285.47;6253501;28;20057;-73
2023/10/19 12:34:35;;;;;;;12.68;5.50;;;;;;;8.10;100.00;99291.53;6253640;28;20049;-71
2023/10/19 12:37:41;;;;;;;9.68;5.32;;;;;;;8.09;100.00;99276.78;6253812;28;20041;-71
2023/10/19 12:40:46;;;;;;;8.55;5.00;;;;;;;8.09;100.00;99279.41;6253583;28;20184;-71
2023/10/19 12:43:47;;;;;;;8.73;5.18;;;;;;;8.03;100.00;99270.16;6253444;28;20078;-71
2023/10/19 12:46:49;;;;;;;10.80;5.75;;;;;;;8.03;100.00;99280.63;6253451;28;20358;-72
2023/10/19 12:49:51;;;;;;;11.00;6.05;;;;;;;8.01;100.00;99273.84;6253477;28;20050;-73
2023/10/19 12:52:52;;;;;;;12.10;6.20;;;;;;;8.04;100.00;99271.00;6252923;28;20052;-71
2023/10/19 12:55:55;;;;;;;11.02;5.97;;;;;;;8.02;100.00;99271.09;6253663;28;20054;-72
2023/10/19 12:58:56;;;;;;;14.98;5.75;;;;;;;8.04;100.00;99273.59;6253018;28;20346;-72
2023/10/19 13:01:58;;;;;;;12.98;6.10;;;;;;;8.02;100.00;99273.72;6253196;28;20053;-71
2023/10/19 13:05:00;;;;;;;15.02;6.93;;;;;;;8.01;100.00;99272.03;6253146;28;20061;-72
2023/10/19 13:08:02;;;;;;;11.07;5.60;;;;;;;8.02;100.00;99275.50;6253021;28;20056;-72
2023/10/19 13:11:05;;;;;;;13.70;6.80;;;;;;;7.96;100.00;99274.13;6252659;28;20053;-72
2023/10/19 13:14:06;;;;;;;14.90;6.88;;;;;;;7.96;100.00;99271.53;6252998;28;20054;-72
2023/10/19 13:17:08;;;;;;;17.33;8.65;;;;;;;8.00;100.00;99274.78;6252868;28;20049;-71
2023/10/19 13:20:18;;;;;;;18.25;7.53;;;;;;;7.99;100.00;99266.06;6252286;28;20049;-71
2023/10/19 13:23:21;;;;;;;15.32;7.45;;;;;;;7.96;100.00;99278.53;6252479;28;20465;-74
2023/10/19 13:26:25;;;;;;;14.85;7.75;;;;;;;7.97;100.00;99272.34;6252509;28;20115;-71
2023/10/19 13:29:27;;;;;;;14.40;7.32;;;;;;;7.96;100.00;99284.59;6252707;28;20056;-71
2023/10/19 13:32:29;;;;;;;16.60;7.22;;;;;;;7.97;100.00;99272.34;6252031;28;20438;-71
2023/10/19 13:35:31;;;;;;;15.00;7.90;;;;;;;7.96;100.00;99273.31;6252425;28;20060;-72
2023/10/19 13:38:33;;;;;;;16.77;8.05;;;;;;;8.01;100.00;99269.44;6251981;28;20350;-71
2023/10/19 13:41:36;;;;;;;17.90;7.00;;;;;;;7.97;100.00;99256.66;6251930;28;20408;-71
2023/10/19 13:44:38;;;;;;;20.65;7.55;;;;;;;7.93;100.00;99255.19;6252274;28;20053;-71
2023/10/19 13:47:39;;;;;;;17.27;7.15;;;;;;;7.96;100.00;99249.75;6252185;28;20053;-73
2023/10/19 13:50:43;;;;;;;15.88;7.97;;;;;;;7.87;100.00;99249.41;6251717;28;20046;-71
2023/10/19 13:53:45;;;;;;;18.60;8.23;;;;;;;7.92;100.00;99240.44;6251729;28;20049;-71
2023/10/19 13:56:48;;;;;;;23.55;8.40;;;;;;;7.89;100.00;99231.00;6251995;28;20111;-72
2023/10/19 13:59:50;;;;;;;22.17;9.02;;;;;;;7.85;100.00;99232.97;6252096;28;20045;-71
2023/10/19 14:02:52;;;;;;;16.70;8.43;;;;;;;7.84;100.00;99233.09;6251549;28;20187;-71
2023/10/19 14:05:56;;;;;;;17.23;7.65;;;;;;;7.88;100.00;99239.78;6251625;28;20076;-71
2023/10/19 14:08:57;;;;;;;22.00;8.13;;;;;;;7.93;100.00;99244.72;6251556;28;20481;-71
2023/10/19 14:12:02;;;;;;;27.23;9.80;;;;;;;7.92;100.00;99243.88;6251605;28;20056;-72
2023/10/19 14:15:04;;;;;;;19.83;9.32;;;;;;;7.95;100.00;99253.28;6251409;28;20050;-73
2023/10/19 14:18:06;;;;;;;21.02;9.23;;;;;;;7.92;100.00;99254.34;6250926;28;20056;-73
2023/10/19 14:21:15;;;;;;;21.55;8.68;;;;;;;7.95;100.00;99248.94;6251157;28;20060;-72